Main page
METAR-TAF:

METAR-TAF

Airports :

Sakon Nakhon Airport

Sakon Nakhon, Thailand

latitude: 17-11-42N, longitude: 104-07-08E, elevation: 161 m

Current weather observation

The report was made 58 minutes ago, at 07:00 UTC
Wind 5 kt from the South, varying between Southeast and West/Southwest
Temperature 31°C
Humidity 33%
Pressure 1014 hPa
Visibility 10 km or more
no clouds below 1500 m and no cumulonimbus

METAR: VTUI 240700Z 18005KT 130V250 CAVOK 31/13 Q1014 NOSIG

Time: 14:58 (07:58 UTC)

Forecast

The report was made 2 hours and 58 minutes ago, at 05:00 UTC
Forecast valid from 24 at 06 UTC to 25 at 06 UTC
Wind 7 kt from the East
Visibility: 9000 m
Becoming
from 24 at 21 UTC to 24 at 23 UTC
Visibility: 5000 m
mist
Becoming
from 25 at 00 UTC to 25 at 02 UTC
Visibility: 9000 m

TAF: VTUI 240500Z 2406/2506 10007KT 9000 NSC BECMG 2421/2423 5000 BR BECMG 2500/2502 9000 NSW

Weather observations and forecasts of more than 4000 airports (METAR and TAF reports).

The available stations are represented by yellow and red dots on the map.

Hover mouse over dot to see the name of the station.

Then click to see weather observations and forecasts.

To change the map : click on the green buttons with a black cross to zoom in, on the green button with a dash to zoom out, or on the green arrows for adjacent maps.


METAR-TAF: